createdAt,value
2023-04-01T00:02:07.175Z,7.93
2023-04-01T00:04:35.172Z,7.96
2023-04-01T00:07:03.278Z,7.97
2023-04-01T00:09:31.562Z,7.97
2023-04-01T00:11:59.446Z,7.97
2023-04-01T00:14:27.463Z,8.01
2023-04-01T00:16:56.936Z,7.99
2023-04-01T00:19:24.875Z,8.00
2023-04-01T00:21:53.266Z,7.99
2023-04-01T00:24:21.455Z,7.99
2023-04-01T00:26:49.874Z,7.93
2023-04-01T00:29:17.893Z,7.93
2023-04-01T00:31:45.827Z,7.99
2023-04-01T00:34:15.606Z,7.94
2023-04-01T00:36:43.361Z,7.95
2023-04-01T00:39:11.322Z,7.92
2023-04-01T00:41:39.205Z,7.90
2023-04-01T00:44:21.405Z,7.78
2023-04-01T00:46:49.211Z,7.82
2023-04-01T00:49:20.833Z,7.61
2023-04-01T00:51:51.068Z,7.79
2023-04-01T00:54:21.497Z,7.78
2023-04-01T00:56:50.894Z,7.74
2023-04-01T00:59:23.381Z,7.72
2023-04-01T01:01:51.416Z,7.70
2023-04-01T01:04:26.378Z,7.67
2023-04-01T01:07:01.203Z,7.64
2023-04-01T01:09:36.045Z,7.50
2023-04-01T01:12:09.989Z,7.63
2023-04-01T01:14:46.628Z,7.60
2023-04-01T01:17:17.047Z,7.59
2023-04-01T01:19:59.443Z,7.57
2023-04-01T01:22:36.786Z,7.56
2023-04-01T01:25:18.930Z,7.57
2023-04-01T01:27:53.772Z,7.56
2023-04-01T01:30:37.536Z,7.57
2023-04-01T01:33:41.018Z,7.60
2023-04-01T01:36:12.580Z,7.61
2023-04-01T01:38:40.777Z,7.61
2023-04-01T01:41:09.433Z,7.63
2023-04-01T01:43:39.759Z,7.64
2023-04-01T01:46:11.448Z,7.63
2023-04-01T01:48:39.694Z,7.53
2023-04-01T01:51:08.478Z,7.56
2023-04-01T01:53:37.939Z,7.63
2023-04-01T01:56:06.961Z,7.64
2023-04-01T01:58:41.475Z,7.63
2023-04-01T02:01:12.604Z,7.66
2023-04-01T02:03:42.077Z,7.65
2023-04-01T02:06:13.238Z,7.66
2023-04-01T02:08:45.829Z,7.67
2023-04-01T02:11:15.443Z,7.67
2023-04-01T02:13:46.196Z,7.47
2023-04-01T02:16:15.940Z,7.67
2023-04-01T02:18:44.833Z,7.68
2023-04-01T02:21:13.204Z,7.67
2023-04-01T02:23:42.731Z,7.69
2023-04-01T02:26:11.680Z,7.69
2023-04-01T02:28:40.481Z,7.51
2023-04-01T02:31:09.652Z,7.64
2023-04-01T02:33:37.840Z,7.66
2023-04-01T02:36:06.140Z,7.46
2023-04-01T02:38:34.223Z,7.62
2023-04-01T02:41:06.239Z,7.60
2023-04-01T02:43:34.159Z,7.57
2023-04-01T02:46:02.800Z,7.56
2023-04-01T02:48:30.864Z,7.55
2023-04-01T02:50:58.839Z,7.51
2023-04-01T02:53:26.681Z,7.51
2023-04-01T02:55:54.500Z,7.48
2023-04-01T02:58:23.685Z,7.46
2023-04-01T03:00:51.505Z,7.48
2023-04-01T03:03:19.459Z,7.47
2023-04-01T03:05:47.278Z,7.45
2023-04-01T03:08:15.064Z,7.45
2023-04-01T03:10:43.029Z,7.45
2023-04-01T03:13:11.065Z,7.42
2023-04-01T03:15:40.307Z,7.40
2023-04-01T03:18:08.285Z,7.38
2023-04-01T03:20:36.081Z,7.33
2023-04-01T03:23:03.972Z,7.31
2023-04-01T03:25:40.806Z,7.30
2023-04-01T03:28:08.584Z,7.27
2023-04-01T03:30:36.537Z,7.28
2023-04-01T03:33:05.798Z,7.27
2023-04-01T03:35:33.890Z,7.26
2023-04-01T03:38:01.855Z,7.28
2023-04-01T03:40:29.689Z,7.27
2023-04-01T03:42:57.702Z,7.28
2023-04-01T03:45:25.572Z,7.29
2023-04-01T03:47:53.336Z,7.25
2023-04-01T03:50:22.663Z,7.28
2023-04-01T03:52:50.451Z,7.28
2023-04-01T03:55:19.060Z,7.29
2023-04-01T03:57:46.869Z,7.26
2023-04-01T04:00:15.142Z,7.25
2023-04-01T04:02:42.989Z,7.27
2023-04-01T04:05:10.791Z,7.22
2023-04-01T04:07:39.988Z,7.24
2023-04-01T04:10:09.124Z,7.22
2023-04-01T04:12:36.967Z,7.24
2023-04-01T04:15:05.264Z,7.23
2023-04-01T04:17:33.084Z,7.23
2023-04-01T04:20:00.933Z,7.25
2023-04-01T04:22:28.913Z,7.21
2023-04-01T04:24:58.184Z,7.22
2023-04-01T04:27:26.124Z,7.21
2023-04-01T04:29:53.920Z,7.21
2023-04-01T04:32:21.730Z,7.19
2023-04-01T04:34:49.484Z,7.20
2023-04-01T04:37:17.288Z,7.21
2023-04-01T04:39:45.067Z,7.17
2023-04-01T04:42:14.213Z,7.18
2023-04-01T04:44:42.023Z,7.18
2023-04-01T04:47:09.906Z,7.13
2023-04-01T04:49:37.740Z,7.16
2023-04-01T04:52:05.572Z,7.15
2023-04-01T04:54:33.382Z,7.10
2023-04-01T04:57:01.274Z,7.11
2023-04-01T04:59:30.407Z,7.12
2023-04-01T05:01:58.204Z,7.09
2023-04-01T05:04:26.166Z,7.10
2023-04-01T05:06:53.968Z,7.09
2023-04-01T05:09:21.860Z,7.07
2023-04-01T05:11:49.663Z,7.06
2023-04-01T05:14:18.290Z,7.07
2023-04-01T05:16:47.493Z,7.05
2023-04-01T05:19:15.343Z,7.08
2023-04-01T05:21:43.095Z,7.06
2023-04-01T05:24:11.292Z,7.05
2023-04-01T05:26:39.176Z,7.06
2023-04-01T05:29:07.292Z,7.06
2023-04-01T05:31:35.056Z,7.08
2023-04-01T05:34:04.316Z,7.08
2023-04-01T05:36:32.089Z,7.07
2023-04-01T05:38:59.992Z,7.08
2023-04-01T05:41:27.742Z,7.08
2023-04-01T05:43:55.901Z,7.09
2023-04-01T05:46:23.682Z,7.11
2023-04-01T05:48:51.522Z,7.10
2023-04-01T05:51:20.639Z,7.09
2023-04-01T05:53:48.503Z,7.11
2023-04-01T05:56:16.425Z,7.10
2023-04-01T05:58:44.246Z,7.10
2023-04-01T06:01:16.312Z,7.10
2023-04-01T06:03:44.757Z,7.08
2023-04-01T06:06:16.688Z,7.07
2023-04-01T06:08:46.021Z,7.06
2023-04-01T06:11:24.755Z,7.06
2023-04-01T06:14:12.524Z,7.08
2023-04-01T06:16:51.598Z,7.08
2023-04-01T06:19:28.761Z,7.07
2023-04-01T06:22:16.434Z,7.08
2023-04-01T06:24:57.884Z,7.05
2023-04-01T06:27:37.317Z,6.97
2023-04-01T06:30:12.996Z,7.05
2023-04-01T06:32:56.231Z,7.06
2023-04-01T06:35:38.972Z,7.06
2023-04-01T06:38:42.445Z,7.05
2023-04-01T06:41:26.284Z,7.06
2023-04-01T06:44:00.782Z,7.05
2023-04-01T06:46:37.212Z,7.03
2023-04-01T06:49:15.278Z,7.02
2023-04-01T06:51:50.492Z,7.03
2023-04-01T06:54:21.030Z,7.04
2023-04-01T06:56:53.026Z,7.06
2023-04-01T06:59:23.118Z,7.05
2023-04-01T07:01:53.377Z,7.08
2023-04-01T07:04:23.335Z,7.08
2023-04-01T07:06:54.443Z,7.05
2023-04-01T07:09:25.262Z,7.07
2023-04-01T07:11:56.005Z,7.10
2023-04-01T07:14:26.821Z,7.14
2023-04-01T07:16:59.146Z,6.94
2023-04-01T07:19:31.568Z,7.18
2023-04-01T07:22:03.030Z,7.23
2023-04-01T07:24:34.862Z,7.24
2023-04-01T07:27:04.142Z,7.28
2023-04-01T07:29:31.954Z,7.28
2023-04-01T07:32:11.839Z,7.30
2023-04-01T07:34:47.071Z,7.35
2023-04-01T07:37:16.750Z,7.41
2023-04-01T07:39:49.994Z,7.45
2023-04-01T07:42:26.382Z,7.36
2023-04-01T07:44:59.260Z,7.43
2023-04-01T07:47:42.676Z,7.40
2023-04-01T07:50:18.660Z,7.38
2023-04-01T07:52:51.408Z,7.37
2023-04-01T07:55:23.349Z,7.39
2023-04-01T07:57:57.360Z,7.37
2023-04-01T08:00:29.534Z,7.39
2023-04-01T08:03:29.161Z,7.40
2023-04-01T08:05:59.623Z,7.43
2023-04-01T08:08:34.855Z,7.41
2023-04-01T08:11:08.466Z,7.43
2023-04-01T08:13:42.142Z,7.45
2023-04-01T08:16:15.573Z,7.33
2023-04-01T08:18:48.657Z,7.42
2023-04-01T08:21:19.970Z,7.45
2023-04-01T08:23:49.901Z,7.43
2023-04-01T08:26:24.338Z,7.47
2023-04-01T08:28:56.358Z,7.50
2023-04-01T08:31:28.672Z,7.47
2023-04-01T08:33:56.929Z,7.44
2023-04-01T08:36:27.297Z,7.46
2023-04-01T08:38:57.298Z,7.51
2023-04-01T08:41:42.672Z,7.51
2023-04-01T08:44:21.520Z,7.54
2023-04-01T08:47:12.672Z,7.60
2023-04-01T08:50:11.529Z,7.60
2023-04-01T08:52:40.028Z,7.59
2023-04-01T08:55:40.063Z,7.59
2023-04-01T08:58:39.415Z,7.60
2023-04-01T09:01:17.084Z,7.42
2023-04-01T09:04:04.551Z,7.64
2023-04-01T09:06:37.813Z,7.70
2023-04-01T09:09:26.991Z,7.75
2023-04-01T09:12:18.000Z,7.82
2023-04-01T09:15:02.728Z,7.83
2023-04-01T09:17:52.414Z,7.84
2023-04-01T09:20:29.060Z,7.88
2023-04-01T09:23:13.183Z,7.93
2023-04-01T09:25:49.756Z,7.94
2023-04-01T09:28:21.183Z,7.95
2023-04-01T09:31:30.625Z,8.00
2023-04-01T09:34:19.742Z,8.01
2023-04-01T09:36:48.338Z,8.15
2023-04-01T09:39:41.577Z,8.28
2023-04-01T09:42:36.619Z,8.39
2023-04-01T09:45:09.265Z,8.43
2023-04-01T09:47:47.328Z,8.52
2023-04-01T09:50:26.983Z,8.56
2023-04-01T09:52:59.482Z,8.58
2023-04-01T09:56:01.637Z,8.58
2023-04-01T09:59:10.637Z,8.56
2023-04-01T10:02:09.896Z,8.54
2023-04-01T10:05:06.857Z,8.55
2023-04-01T10:07:53.674Z,8.59
2023-04-01T10:10:41.921Z,8.57
2023-04-01T10:13:42.965Z,8.59
2023-04-01T10:16:46.935Z,8.65
2023-04-01T10:19:37.757Z,8.67
2023-04-01T10:22:39.052Z,8.73
2023-04-01T10:25:30.024Z,8.77
2023-04-01T10:28:22.170Z,8.73
2023-04-01T10:31:25.107Z,8.72
2023-04-01T10:34:20.883Z,8.72
2023-04-01T10:36:59.020Z,8.73
2023-04-01T10:39:36.284Z,8.82
2023-04-01T10:42:43.023Z,8.92
2023-04-01T10:45:59.086Z,8.97
2023-04-01T10:49:04.763Z,9.09
2023-04-01T10:51:52.765Z,9.29
2023-04-01T10:54:23.585Z,9.34
2023-04-01T10:57:02.251Z,9.33
2023-04-01T11:00:07.648Z,9.40
2023-04-01T11:02:58.725Z,9.32
2023-04-01T11:05:53.430Z,9.40
2023-04-01T11:08:53.574Z,9.49
2023-04-01T11:11:57.794Z,9.52
2023-04-01T11:15:10.621Z,9.52
2023-04-01T11:18:03.056Z,9.65
2023-04-01T11:21:06.374Z,9.68
2023-04-01T11:24:04.527Z,9.63
2023-04-01T11:26:44.943Z,9.66
2023-04-01T11:29:38.934Z,9.70
2023-04-01T11:32:17.796Z,9.67
2023-04-01T11:34:58.425Z,9.61
2023-04-01T11:37:37.008Z,9.59
2023-04-01T11:40:13.428Z,9.52
2023-04-01T11:42:46.639Z,9.48
2023-04-01T11:45:23.293Z,9.54
2023-04-01T11:48:11.731Z,9.57
2023-04-01T11:50:50.771Z,9.47
2023-04-01T11:53:26.989Z,9.55
2023-04-01T11:56:01.369Z,9.46
2023-04-01T11:58:45.929Z,9.42
2023-04-01T12:01:25.023Z,9.41
2023-04-01T12:04:22.523Z,9.47
2023-04-01T12:06:56.160Z,9.59
2023-04-01T12:09:27.396Z,9.63
2023-04-01T12:12:06.409Z,9.64
2023-04-01T12:14:39.486Z,9.72
2023-04-01T12:17:12.998Z,9.68
2023-04-01T12:19:45.934Z,9.71
2023-04-01T12:22:35.737Z,9.75
2023-04-01T12:25:19.908Z,9.72
2023-04-01T12:27:55.374Z,9.66
2023-04-01T12:30:41.186Z,9.67
2023-04-01T12:33:21.201Z,9.69
2023-04-01T12:35:57.626Z,9.64
2023-04-01T12:38:34.090Z,9.67
2023-04-01T12:41:12.433Z,9.72
2023-04-01T12:44:08.003Z,9.69
2023-04-01T12:46:44.289Z,9.71
2023-04-01T12:49:23.158Z,9.80
2023-04-01T12:52:06.540Z,9.86
2023-04-01T12:55:10.565Z,9.82
2023-04-01T12:58:09.358Z,9.97
2023-04-01T13:01:01.118Z,9.99
2023-04-01T13:03:47.170Z,9.95
2023-04-01T13:06:47.043Z,9.91
2023-04-01T13:09:25.627Z,9.92
2023-04-01T13:12:09.217Z,9.66
2023-04-01T13:15:06.906Z,9.64
2023-04-01T13:17:39.380Z,9.62
2023-04-01T13:20:16.816Z,9.55
2023-04-01T13:22:54.110Z,9.51
2023-04-01T13:25:28.957Z,9.43
2023-04-01T13:28:02.465Z,9.44
2023-04-01T13:30:33.277Z,9.51
2023-04-01T13:33:05.472Z,9.52
2023-04-01T13:35:39.329Z,9.49
2023-04-01T13:38:17.743Z,9.48
2023-04-01T13:41:02.103Z,9.46
2023-04-01T13:43:35.012Z,9.49
2023-04-01T13:46:29.858Z,9.51
2023-04-01T13:49:09.373Z,9.52
2023-04-01T13:51:58.665Z,9.53
2023-04-01T13:55:05.910Z,9.58
2023-04-01T13:57:45.873Z,9.57
2023-04-01T14:00:25.016Z,9.55
2023-04-01T14:03:03.170Z,9.58
2023-04-01T14:05:43.933Z,9.62
2023-04-01T14:08:20.016Z,9.63
2023-04-01T14:10:53.801Z,9.67
2023-04-01T14:13:25.736Z,9.69
2023-04-01T14:16:06.001Z,9.65
2023-04-01T14:18:49.623Z,9.63
2023-04-01T14:21:24.078Z,9.63
2023-04-01T14:24:09.797Z,9.54
2023-04-01T14:27:09.090Z,9.37
2023-04-01T14:29:42.493Z,9.26
2023-04-01T14:32:18.928Z,9.24
2023-04-01T14:34:59.303Z,9.27
2023-04-01T14:38:02.229Z,9.32
2023-04-01T14:40:31.099Z,9.39
2023-04-01T14:43:12.564Z,9.34
2023-04-01T14:46:01.951Z,9.28
2023-04-01T14:48:34.525Z,9.33
2023-04-01T14:51:10.656Z,9.40
2023-04-01T14:53:42.723Z,9.31
2023-04-01T14:56:10.462Z,9.31
2023-04-01T14:58:46.673Z,9.32
2023-04-01T15:01:32.629Z,9.19
2023-04-01T15:04:12.067Z,9.40
2023-04-01T15:07:05.764Z,9.49
2023-04-01T15:09:40.047Z,9.61
2023-04-01T15:12:18.043Z,9.54
2023-04-01T15:15:19.079Z,9.56
2023-04-01T15:17:59.492Z,9.59
2023-04-01T15:20:38.478Z,9.51
2023-04-01T15:23:18.080Z,9.46
2023-04-01T15:26:06.475Z,9.34
2023-04-01T15:28:39.152Z,9.24
2023-04-01T15:31:12.735Z,9.22
2023-04-01T15:33:55.081Z,9.12
2023-04-01T15:36:32.254Z,9.12
2023-04-01T15:39:07.030Z,9.08
2023-04-01T15:41:42.382Z,9.05
2023-04-01T15:44:28.800Z,9.06
2023-04-01T15:46:57.317Z,9.07
2023-04-01T15:49:33.573Z,9.13
2023-04-01T15:52:08.909Z,9.13
2023-04-01T15:54:55.636Z,9.18
2023-04-01T15:57:29.629Z,9.26
2023-04-01T16:00:28.394Z,9.29
2023-04-01T16:03:15.720Z,9.27
2023-04-01T16:05:57.272Z,9.27
2023-04-01T16:08:43.345Z,9.27
2023-04-01T16:11:22.167Z,9.25
2023-04-01T16:13:58.041Z,9.17
2023-04-01T16:16:33.602Z,9.11
2023-04-01T16:19:18.411Z,9.11
2023-04-01T16:21:49.440Z,9.09
2023-04-01T16:24:24.631Z,9.07
2023-04-01T16:26:55.942Z,9.03
2023-04-01T16:29:29.986Z,8.95
2023-04-01T16:32:07.618Z,8.88
2023-04-01T16:34:38.983Z,8.81
2023-04-01T16:37:13.701Z,8.74
2023-04-01T16:39:47.705Z,8.67
2023-04-01T16:42:32.975Z,8.59
2023-04-01T16:45:08.785Z,8.63
2023-04-01T16:47:38.637Z,8.65
2023-04-01T16:50:09.517Z,8.59
2023-04-01T16:52:54.132Z,8.54
2023-04-01T16:55:24.632Z,8.55
2023-04-01T16:57:54.723Z,8.51
2023-04-01T17:00:27.745Z,8.51
2023-04-01T17:03:06.598Z,8.51
2023-04-01T17:05:46.556Z,8.48
2023-04-01T17:08:22.112Z,8.51
2023-04-01T17:10:54.349Z,8.49
2023-04-01T17:13:33.456Z,8.48
2023-04-01T17:16:12.573Z,8.45
2023-04-01T17:18:46.900Z,8.41
2023-04-01T17:21:20.108Z,8.40
2023-04-01T17:23:51.903Z,8.37
2023-04-01T17:26:29.533Z,8.37
2023-04-01T17:29:00.595Z,8.37
2023-04-01T17:31:46.041Z,8.37
2023-04-01T17:34:37.836Z,8.33
2023-04-01T17:37:16.129Z,8.34
2023-04-01T17:39:51.039Z,8.32
2023-04-01T17:42:24.945Z,8.31
2023-04-01T17:44:58.948Z,8.30
2023-04-01T17:47:46.523Z,8.26
2023-04-01T17:50:25.189Z,8.26
2023-04-01T17:53:07.924Z,8.27
2023-04-01T17:55:47.347Z,8.26
2023-04-01T17:58:20.615Z,8.24
2023-04-01T18:01:14.323Z,8.22
2023-04-01T18:04:05.045Z,8.20
2023-04-01T18:06:38.348Z,8.24
2023-04-01T18:09:17.166Z,8.21
2023-04-01T18:11:55.844Z,8.21
2023-04-01T18:14:38.580Z,8.18
2023-04-01T18:17:25.445Z,8.16
2023-04-01T18:20:04.667Z,8.14
2023-04-01T18:22:39.809Z,8.09
2023-04-01T18:25:16.685Z,8.04
2023-04-01T18:27:47.091Z,7.99
2023-04-01T18:30:18.074Z,7.97
2023-04-01T18:32:51.213Z,7.94
2023-04-01T18:35:27.118Z,7.93
2023-04-01T18:37:58.409Z,7.90
2023-04-01T18:40:28.683Z,7.90
2023-04-01T18:43:03.931Z,7.87
2023-04-01T18:45:36.324Z,7.86
2023-04-01T18:48:13.547Z,7.87
2023-04-01T18:50:45.542Z,7.83
2023-04-01T18:53:20.624Z,7.83
2023-04-01T18:55:50.044Z,7.81
2023-04-01T18:58:28.201Z,7.83
2023-04-01T19:01:05.918Z,7.82
2023-04-01T19:03:37.274Z,7.78
2023-04-01T19:06:18.116Z,7.71
2023-04-01T19:08:46.566Z,7.75
2023-04-01T19:11:20.870Z,7.73
2023-04-01T19:13:55.048Z,7.70
2023-04-01T19:16:31.189Z,7.68
2023-04-01T19:19:13.178Z,7.66
2023-04-01T19:21:44.472Z,7.63
2023-04-01T19:24:23.621Z,7.61
2023-04-01T19:26:55.436Z,7.59
2023-04-01T19:29:32.712Z,7.55
2023-04-01T19:32:12.641Z,7.52
2023-04-01T19:34:49.385Z,7.51
2023-04-01T19:37:27.536Z,7.49
2023-04-01T19:40:04.780Z,7.48
2023-04-01T19:42:36.890Z,7.47
2023-04-01T19:45:13.748Z,7.45
2023-04-01T19:47:47.842Z,7.46
2023-04-01T19:50:27.482Z,7.45
2023-04-01T19:52:57.866Z,7.44
2023-04-01T19:55:35.843Z,7.45
2023-04-01T19:58:08.462Z,7.47
2023-04-01T20:00:38.867Z,7.48
2023-04-01T20:03:22.628Z,7.52
2023-04-01T20:05:53.472Z,7.56
2023-04-01T20:08:27.823Z,7.59
2023-04-01T20:11:06.130Z,7.61
2023-04-01T20:13:44.791Z,7.60
2023-04-01T20:16:16.043Z,7.53
2023-04-01T20:18:50.379Z,7.51
2023-04-01T20:21:29.648Z,7.49
2023-04-01T20:24:00.516Z,7.41
2023-04-01T20:26:32.538Z,7.50
2023-04-01T20:29:10.443Z,7.49
2023-04-01T20:31:39.695Z,7.49
2023-04-01T20:34:24.016Z,7.46
2023-04-01T20:37:01.410Z,7.43
2023-04-01T20:40:02.080Z,7.40
2023-04-01T20:42:37.003Z,7.37
2023-04-01T20:45:16.868Z,7.38
2023-04-01T20:47:58.235Z,7.37
2023-04-01T20:50:31.680Z,7.36
2023-04-01T20:53:06.058Z,7.36
2023-04-01T20:56:01.084Z,7.38
2023-04-01T20:58:34.343Z,7.38
2023-04-01T21:01:13.257Z,7.40
2023-04-01T21:03:48.612Z,7.40
2023-04-01T21:06:43.664Z,7.36
2023-04-01T21:09:25.779Z,7.37
2023-04-01T21:11:57.856Z,7.36
2023-04-01T21:14:46.806Z,7.34
2023-04-01T21:17:20.242Z,7.33
2023-04-01T21:20:00.462Z,7.33
2023-04-01T21:22:42.051Z,7.35
2023-04-01T21:25:28.572Z,7.36
2023-04-01T21:28:06.600Z,7.34
2023-04-01T21:30:42.738Z,7.37
2023-04-01T21:33:24.216Z,7.34
2023-04-01T21:35:58.904Z,7.36
2023-04-01T21:38:38.697Z,7.35
2023-04-01T21:41:17.096Z,7.33
2023-04-01T21:44:19.855Z,7.35
2023-04-01T21:47:17.354Z,7.36
2023-04-01T21:50:21.926Z,7.37
2023-04-01T21:53:27.571Z,7.37
2023-04-01T21:56:55.164Z,7.36
2023-04-01T21:59:43.170Z,7.37
2023-04-01T22:02:35.608Z,7.38
2023-04-01T22:05:09.573Z,7.38
2023-04-01T22:07:40.722Z,7.30
2023-04-01T22:10:18.897Z,7.30
2023-04-01T22:12:49.218Z,7.30
2023-04-01T22:15:23.279Z,7.29
2023-04-01T22:17:56.077Z,7.25
2023-04-01T22:20:30.215Z,7.25
2023-04-01T22:23:09.204Z,7.25
2023-04-01T22:25:42.094Z,7.25
2023-04-01T22:28:13.108Z,7.26
2023-04-01T22:30:44.771Z,7.26
2023-04-01T22:33:17.692Z,7.27
2023-04-01T22:35:50.938Z,7.27
2023-04-01T22:38:28.438Z,7.31
2023-04-01T22:41:00.187Z,7.35
2023-04-01T22:43:34.645Z,7.39
2023-04-01T22:46:22.678Z,7.41
2023-04-01T22:48:55.143Z,7.43
2023-04-01T22:51:25.239Z,7.39
2023-04-01T22:54:03.677Z,7.37
2023-04-01T22:56:35.075Z,7.38
2023-04-01T22:59:08.597Z,7.39
2023-04-01T23:01:44.074Z,7.41
2023-04-01T23:04:18.850Z,7.41
2023-04-01T23:06:50.923Z,7.39
2023-04-01T23:09:20.525Z,7.38
2023-04-01T23:11:52.997Z,7.37
2023-04-01T23:14:48.684Z,7.36
2023-04-01T23:17:30.411Z,7.33
2023-04-01T23:20:06.855Z,7.33
2023-04-01T23:22:37.975Z,7.31
2023-04-01T23:25:17.720Z,7.32
2023-04-01T23:27:48.792Z,7.34
2023-04-01T23:30:50.904Z,7.31
2023-04-01T23:33:25.388Z,7.32
2023-04-01T23:35:55.255Z,7.33
2023-04-01T23:38:24.868Z,7.32
2023-04-01T23:40:54.251Z,7.31
2023-04-01T23:43:26.532Z,7.15
2023-04-01T23:45:55.055Z,7.23
2023-04-01T23:48:28.682Z,7.20
2023-04-01T23:50:57.105Z,7.19
2023-04-01T23:53:27.052Z,7.20
2023-04-01T23:55:55.049Z,7.20
2023-04-01T23:58:27.022Z,7.23
